Grand Mercury — HOOC — position and weather

sailwx.info

Track history (hours):
 
Tides and Currents Weather Stations Pressure Air Temp Water Temp Dewpoint Dewpoint Depression Visibility Wind Speed Wind Dir Waves Ship Positions

Grand Mercury

Last reported at 2018-Feb-18 16:37 UTC. Time now 2018-Feb-20 13:48 UTC.
Position N 09°35' W 079°47'.

Length 200 m; draft 9.3 m.

Type: Cargo ship. MMSI: 355649000.

Date/timePositionNaut miles runAvg speedWind from/ knotsBaromVisibWave heightAir tempDewpointWater temp
2018-Feb-18 16:37N 09°35' W 079°47'216.5
2018-Feb-18 16:30N 09°34' W 079°49'816.1
2018-Feb-18 16:00N 09°28' W 079°54'612.0
2018-Feb-18 15:30N 09°22' W 079°55'3 6.7
2018-Feb-18 15:00N 09°19' W 079°55'2 4.0
2018-Feb-18 14:30N 09°17' W 079°55'0 0.4
2018-Feb-18 14:00N 09°16' W 079°55'0 0.7
2018-Feb-18 13:30N 09°16' W 079°55'0 0.9
2018-Feb-18 13:00N 09°16' W 079°55'0 0.4
2018-Feb-18 12:29N 09°15' W 079°55'0 0.0
2018-Feb-18 11:59N 09°15' W 079°55'0 0.0
2018-Feb-18 11:29N 09°15' W 079°55'0 0.7
2018-Feb-18 11:00N 09°15' W 079°55'3 6.2
2018-Feb-18 10:28N 09°12' W 079°54'  
2018-Feb-10 06:00N 28°49' W 120°32'918.2
2018-Feb-10 05:29N 28°53' W 120°42'918.2
2018-Feb-10 05:00N 28°58' W 120°50'1018.5
2018-Feb-10 04:28N 29°03' W 121°00'1818.1
2018-Feb-10 03:27N 29°12' W 121°18'1018.2
2018-Feb-10 02:54N 29°17' W 121°28'818.3
2018-Feb-10 02:27N 29°21' W 121°37'1118.4
2018-Feb-10 01:50N 29°27' W 121°48'618.2
2018-Feb-10 01:30N 29°30' W 121°54'5618.1
2018-Feb-09 22:24N 29°57' W 122°50'718.2
2018-Feb-09 22:00N 30°01' W 122°57'2718.2
2018-Feb-09 20:30N 30°14' W 123°25'918.3
2018-Feb-09 20:00N 30°19' W 123°34'  
Track history (hours):
 
Tides and Currents Weather Stations Pressure Air Temp Water Temp Dewpoint Dewpoint Depression Visibility Wind Speed Wind Dir Waves Ship Positions

Grand Mercury

Last reported at 2018-Feb-18 16:37 UTC. Time now 2018-Feb-20 13:48 UTC.
Position N 09°35' W 079°47'.

Length 200 m; draft 9.3 m.

Type: Cargo ship. MMSI: 355649000.

Date/timePositionNaut miles runAvg speedWind from/ knotsBaromVisibWave heightAir tempDewpointWater temp
2018-Feb-18 16:37N 09°35' W 079°47'216.5
2018-Feb-18 16:30N 09°34' W 079°49'816.1
2018-Feb-18 16:00N 09°28' W 079°54'612.0
2018-Feb-18 15:30N 09°22' W 079°55'3 6.7
2018-Feb-18 15:00N 09°19' W 079°55'2 4.0
2018-Feb-18 14:30N 09°17' W 079°55'0 0.4
2018-Feb-18 14:00N 09°16' W 079°55'0 0.7
2018-Feb-18 13:30N 09°16' W 079°55'0 0.9
2018-Feb-18 13:00N 09°16' W 079°55'0 0.4
2018-Feb-18 12:29N 09°15' W 079°55'0 0.0
2018-Feb-18 11:59N 09°15' W 079°55'0 0.0
2018-Feb-18 11:29N 09°15' W 079°55'0 0.7
2018-Feb-18 11:00N 09°15' W 079°55'3 6.2
2018-Feb-18 10:28N 09°12' W 079°54'  
2018-Feb-10 06:00N 28°49' W 120°32'918.2
2018-Feb-10 05:29N 28°53' W 120°42'918.2
2018-Feb-10 05:00N 28°58' W 120°50'1018.5
2018-Feb-10 04:28N 29°03' W 121°00'1818.1
2018-Feb-10 03:27N 29°12' W 121°18'1018.2
2018-Feb-10 02:54N 29°17' W 121°28'818.3
2018-Feb-10 02:27N 29°21' W 121°37'1118.4
2018-Feb-10 01:50N 29°27' W 121°48'618.2
2018-Feb-10 01:30N 29°30' W 121°54'5618.1
2018-Feb-09 22:24N 29°57' W 122°50'718.2
2018-Feb-09 22:00N 30°01' W 122°57'2718.2
2018-Feb-09 20:30N 30°14' W 123°25'918.3
2018-Feb-09 20:00N 30°19' W 123°34'  

Dump ship's entire track history